Time;durP1;ratioP1;P1;durP2;ratioP2;P2;SDS_P1;SDS_P2;PMS_P1;PMS_P2;Temp;Humidity;BMP_temperature;BMP_pressure;BME280_temperature;BME280_humidity;BME280_pressure;Samples;Min_cycle;Max_cycle;Signal;HPM_P1;HPM_P2
2023/06/07 00:00:46;;;;;;;5.32;3.60;;;19.10;99.90;;;;;;4969603;28;20070;-79
2023/06/07 00:03:14;;;;;;;5.13;3.42;;;19.10;99.90;;;;;;4978449;28;20054;-78
2023/06/07 00:05:42;;;;;;;6.32;3.60;;;19.10;99.90;;;;;;4958583;28;20047;-78
2023/06/07 00:08:09;;;;;;;8.57;3.38;;;19.00;99.90;;;;;;4956229;28;20098;-78
2023/06/07 00:10:36;;;;;;;5.85;3.75;;;19.00;99.90;;;;;;5014560;23;20045;-77
2023/06/07 00:13:04;;;;;;;4.85;3.35;;;18.90;99.90;;;;;;5031884;28;20044;-77
2023/06/07 00:15:31;;;;;;;5.32;3.85;;;18.90;99.90;;;;;;5031209;28;20494;-76
2023/06/07 00:18:00;;;;;;;7.30;3.75;;;18.90;99.90;;;;;;5030620;28;20626;-75
2023/06/07 00:20:28;;;;;;;;;;;18.90;99.90;;;;;;5027061;28;20049;-76
2023/06/07 00:22:58;;;;;;;4.90;3.38;;;18.80;99.90;;;;;;5019404;28;19976;-77
2023/06/07 00:25:25;;;;;;;4.82;3.30;;;18.80;99.90;;;;;;5033420;28;20505;-76
2023/06/07 00:27:52;;;;;;;4.35;3.33;;;18.70;99.90;;;;;;5019456;28;20100;-77
2023/06/07 00:30:19;;;;;;;7.88;4.10;;;18.70;99.90;;;;;;5022537;28;20050;-77
2023/06/07 00:32:46;;;;;;;5.43;3.80;;;18.70;99.90;;;;;;5020540;28;20041;-75
2023/06/07 00:35:13;;;;;;;6.95;4.55;;;18.60;99.90;;;;;;5024145;28;20480;-77
2023/06/07 00:37:41;;;;;;;7.03;3.70;;;18.60;99.90;;;;;;5018608;28;20521;-76
2023/06/07 00:40:09;;;;;;;5.22;3.58;;;18.50;99.90;;;;;;5011748;28;20070;-76
2023/06/07 00:42:35;;;;;;;4.63;3.53;;;18.50;99.90;;;;;;5017417;28;20556;-77
2023/06/07 00:45:02;;;;;;;8.57;4.03;;;18.50;99.90;;;;;;5020077;28;20386;-77
2023/06/07 00:47:29;;;;;;;7.05;3.83;;;18.50;99.90;;;;;;5019773;28;20041;-77
2023/06/07 00:49:57;;;;;;;6.82;3.58;;;18.40;99.90;;;;;;5023180;28;20046;-75
2023/06/07 00:52:24;;;;;;;7.13;4.22;;;18.40;99.90;;;;;;5023993;28;20524;-76
2023/06/07 00:54:52;;;;;;;4.90;3.88;;;18.40;99.90;;;;;;5021786;28;20045;-76
2023/06/07 00:57:19;;;;;;;7.28;4.00;;;18.40;99.90;;;;;;5025754;28;20079;-77
2023/06/07 00:59:46;;;;;;;6.70;3.78;;;18.30;99.90;;;;;;5024501;28;20103;-76
2023/06/07 01:02:16;;;;;;;5.40;3.35;;;18.40;99.90;;;;;;5025542;28;20107;-76
2023/06/07 01:04:43;;;;;;;4.78;3.70;;;18.30;99.90;;;;;;5027534;28;20575;-77
2023/06/07 01:07:11;;;;;;;6.20;3.70;;;18.20;99.90;;;;;;5018610;28;20076;-77
2023/06/07 01:09:38;;;;;;;8.23;3.63;;;18.20;99.90;;;;;;5013153;28;20096;-76
2023/06/07 01:12:10;;;;;;;5.93;3.85;;;18.20;99.90;;;;;;5017436;28;20125;-77
2023/06/07 01:14:37;;;;;;;7.05;3.95;;;18.20;99.90;;;;;;5019333;28;20041;-77
2023/06/07 01:17:04;;;;;;;5.85;4.05;;;18.10;99.90;;;;;;5019915;28;20045;-77
2023/06/07 01:19:36;;;;;;;11.07;4.40;;;18.10;99.90;;;;;;5022474;28;20569;-76
2023/06/07 01:22:05;;;;;;;7.93;4.10;;;18.10;99.90;;;;;;5023430;28;20050;-77
2023/06/07 01:24:35;;;;;;;9.75;3.88;;;18.10;99.90;;;;;;5021774;28;20046;-76
2023/06/07 01:27:04;;;;;;;;;;;18.00;99.90;;;;;;5027017;28;20053;-76
2023/06/07 01:29:31;;;;;;;7.53;3.55;;;18.00;99.90;;;;;;5027927;28;20007;-76
2023/06/07 01:32:00;;;;;;;6.13;4.43;;;18.00;99.90;;;;;;5025568;28;20095;-77
2023/06/07 01:34:28;;;;;;;7.37;3.90;;;17.90;99.90;;;;;;5020384;28;20050;-77
2023/06/07 01:36:55;;;;;;;5.13;4.05;;;17.90;99.90;;;;;;5014108;28;20477;-77
2023/06/07 01:39:24;;;;;;;7.60;3.85;;;17.90;99.90;;;;;;5018974;28;20068;-76
2023/06/07 01:41:52;;;;;;;5.35;4.00;;;17.80;99.90;;;;;;5017368;28;20462;-77
2023/06/07 01:44:19;;;;;;;4.32;3.30;;;17.80;99.90;;;;;;5018749;28;20467;-76
2023/06/07 01:46:47;;;;;;;8.07;3.75;;;17.80;99.90;;;;;;5018280;28;20053;-77
2023/06/07 01:49:16;;;;;;;5.97;4.10;;;17.80;99.90;;;;;;5019967;28;20589;-76
2023/06/07 01:51:43;;;;;;;4.43;3.90;;;17.80;99.90;;;;;;5024256;28;20045;-77
2023/06/07 01:54:10;;;;;;;4.63;3.95;;;17.80;99.90;;;;;;5035565;28;20695;-76
2023/06/07 01:56:48;;;;;;;5.15;3.70;;;17.70;99.90;;;;;;5021806;28;20086;-76
2023/06/07 01:59:27;;;;;;;4.38;3.67;;;17.70;99.90;;;;;;5028049;28;20088;-76
2023/06/07 02:02:04;;;;;;;6.57;4.45;;;17.70;99.90;;;;;;5025512;28;20053;-77
2023/06/07 02:04:34;;;;;;;6.78;4.38;;;17.60;99.90;;;;;;5017171;28;20057;-77
2023/06/07 02:07:05;;;;;;;;;;;17.60;99.90;;;;;;5016327;28;20096;-76
2023/06/07 02:09:35;;;;;;;5.65;4.30;;;17.50;99.90;;;;;;5016446;28;19929;-77
2023/06/07 02:12:03;;;;;;;8.95;4.13;;;17.50;99.90;;;;;;5018307;28;20536;-76
2023/06/07 02:14:30;;;;;;;4.50;3.60;;;17.50;99.90;;;;;;5020545;28;20387;-77
2023/06/07 02:16:57;;;;;;;5.25;3.40;;;17.40;99.90;;;;;;5018539;28;20480;-77
2023/06/07 02:19:24;;;;;;;6.50;4.43;;;17.40;99.90;;;;;;5021785;28;20052;-77
2023/06/07 02:21:51;;;;;;;6.60;3.92;;;17.40;99.90;;;;;;5021595;28;20053;-77
2023/06/07 02:24:17;;;;;;;7.72;4.20;;;17.30;99.90;;;;;;5024158;28;20053;-77
2023/06/07 02:26:45;;;;;;;6.65;4.07;;;17.30;99.90;;;;;;5025089;28;20089;-76
2023/06/07 02:29:13;;;;;;;5.57;3.70;;;17.30;99.90;;;;;;5027332;28;20045;-77
2023/06/07 02:31:40;;;;;;;3.95;3.38;;;17.20;99.90;;;;;;5017949;28;20130;-76
2023/06/07 02:34:08;;;;;;;3.90;3.22;;;17.20;99.90;;;;;;5014016;28;20465;-76
2023/06/07 02:36:39;;;;;;;4.40;3.35;;;17.20;99.90;;;;;;5015688;28;20063;-77
2023/06/07 02:39:07;;;;;;;6.03;3.95;;;17.20;99.90;;;;;;5031386;28;20060;-76
2023/06/07 02:41:34;;;;;;;6.95;4.18;;;17.20;99.90;;;;;;5019044;28;20123;-77
2023/06/07 02:44:01;;;;;;;4.97;3.83;;;17.10;99.90;;;;;;5020240;28;20592;-76
2023/06/07 02:46:28;;;;;;;5.15;4.20;;;17.10;99.90;;;;;;5019322;28;20065;-76
2023/06/07 02:48:55;;;;;;;5.13;3.83;;;17.10;99.90;;;;;;5021758;28;20081;-77
2023/06/07 02:51:22;;;;;;;6.38;3.90;;;17.10;99.90;;;;;;5036055;28;20171;-76
2023/06/07 02:53:49;;;;;;;6.65;3.80;;;17.00;99.90;;;;;;5022169;28;20096;-76
2023/06/07 02:56:16;;;;;;;6.93;3.72;;;17.00;99.90;;;;;;5024872;28;20108;-77
2023/06/07 02:58:43;;;;;;;7.13;3.97;;;17.00;99.90;;;;;;5027802;28;20069;-76
2023/06/07 03:01:11;;;;;;;4.95;3.78;;;16.90;99.90;;;;;;5023958;28;20112;-76
2023/06/07 03:03:38;;;;;;;4.65;3.97;;;16.90;99.90;;;;;;5012025;28;20096;-76
2023/06/07 03:06:07;;;;;;;5.47;4.50;;;16.90;99.90;;;;;;5013758;28;20088;-76
2023/06/07 03:08:34;;;;;;;6.32;3.75;;;16.90;99.90;;;;;;5015196;28;20132;-76
2023/06/07 03:11:00;;;;;;;5.47;4.13;;;16.80;99.90;;;;;;5017919;28;20144;-76
2023/06/07 03:13:27;;;;;;;7.43;4.07;;;16.80;99.90;;;;;;5018513;28;20481;-76
2023/06/07 03:15:54;;;;;;;6.57;4.18;;;16.80;99.90;;;;;;5020562;28;20042;-75
2023/06/07 03:18:21;;;;;;;4.63;3.88;;;16.80;99.90;;;;;;5020398;28;20095;-77
2023/06/07 03:20:48;;;;;;;6.57;4.45;;;16.70;99.90;;;;;;5022600;28;20129;-77
2023/06/07 03:23:15;;;;;;;7.03;3.88;;;16.70;99.90;;;;;;5023550;28;20433;-77
2023/06/07 03:25:42;;;;;;;5.22;3.83;;;16.70;99.90;;;;;;5022643;28;20086;-77
2023/06/07 03:28:09;;;;;;;5.03;3.88;;;16.70;99.90;;;;;;5027491;28;20476;-77
2023/06/07 03:30:35;;;;;;;5.15;3.72;;;16.60;99.90;;;;;;5020064;28;21332;-76
2023/06/07 03:33:02;;;;;;;6.60;4.30;;;16.60;99.90;;;;;;5008789;28;20506;-76
2023/06/07 03:35:30;;;;;;;6.53;4.20;;;16.60;99.90;;;;;;5015577;28;20129;-76
2023/06/07 03:37:57;;;;;;;6.38;4.13;;;16.60;99.90;;;;;;5015860;28;20486;-77
2023/06/07 03:40:24;;;;;;;8.27;3.88;;;16.50;99.90;;;;;;5017346;28;20045;-76
2023/06/07 03:42:50;;;;;;;5.07;3.85;;;16.50;99.90;;;;;;5019896;28;20050;-76
2023/06/07 03:45:17;;;;;;;6.28;3.85;;;16.50;99.90;;;;;;5021887;28;20061;-76
2023/06/07 03:47:44;;;;;;;5.72;4.30;;;16.50;99.90;;;;;;5019445;28;20575;-76
2023/06/07 03:50:11;;;;;;;5.97;3.88;;;16.50;99.90;;;;;;5023573;28;20058;-76
2023/06/07 03:52:37;;;;;;;6.03;4.03;;;16.50;99.90;;;;;;5023547;28;20081;-76
2023/06/07 03:55:04;;;;;;;8.05;4.40;;;16.40;99.90;;;;;;5023331;28;20049;-76
2023/06/07 03:57:31;;;;;;;6.28;3.83;;;16.40;99.90;;;;;;5022936;28;20099;-76
2023/06/07 04:00:00;;;;;;;5.90;4.07;;;16.40;99.90;;;;;;5017632;28;20121;-76
2023/06/07 04:02:27;;;;;;;7.85;4.05;;;16.40;99.90;;;;;;5013434;28;20053;-76
2023/06/07 04:04:54;;;;;;;6.35;4.18;;;16.40;99.90;;;;;;5014867;28;20062;-76
2023/06/07 04:07:21;;;;;;;8.30;5.10;;;16.40;99.90;;;;;;5012668;28;20786;-76
2023/06/07 04:09:48;;;;;;;10.40;4.22;;;16.40;99.90;;;;;;5016515;28;20076;-76
2023/06/07 04:12:15;;;;;;;4.60;3.92;;;16.40;99.90;;;;;;5018313;28;20053;-76
2023/06/07 04:14:41;;;;;;;4.88;4.07;;;16.40;99.90;;;;;;5036343;28;20052;-77
2023/06/07 04:17:08;;;;;;;7.10;4.35;;;16.40;99.90;;;;;;5018704;28;20042;-76
2023/06/07 04:19:35;;;;;;;7.85;4.93;;;16.40;99.90;;;;;;5022216;28;20053;-76
2023/06/07 04:22:04;;;;;;;8.43;3.92;;;16.40;99.90;;;;;;5026603;28;20523;-75
2023/06/07 04:24:32;;;;;;;8.65;3.90;;;16.40;99.90;;;;;;5021002;28;20053;-76
2023/06/07 04:27:01;;;;;;;9.18;4.35;;;16.40;99.90;;;;;;5026480;28;20045;-76
2023/06/07 04:29:27;;;;;;;8.18;4.60;;;16.50;99.90;;;;;;5013676;28;20046;-75
2023/06/07 04:31:56;;;;;;;4.70;4.05;;;16.50;99.90;;;;;;5013615;28;20125;-76
2023/06/07 04:34:24;;;;;;;4.68;3.80;;;16.50;99.90;;;;;;5015164;28;20069;-75
2023/06/07 04:36:50;;;;;;;4.50;3.83;;;16.50;99.90;;;;;;5017048;28;20065;-77
2023/06/07 04:39:18;;;;;;;5.93;3.83;;;16.60;99.90;;;;;;5016589;28;20077;-76
2023/06/07 04:41:45;;;;;;;4.40;3.60;;;16.60;99.90;;;;;;5017469;28;20064;-76
2023/06/07 04:44:12;;;;;;;14.80;4.30;;;16.60;99.90;;;;;;5019927;28;20521;-76
2023/06/07 04:46:39;;;;;;;7.60;4.35;;;16.60;99.90;;;;;;5019602;28;20053;-76
2023/06/07 04:49:07;;;;;;;6.10;4.28;;;16.70;99.90;;;;;;5016664;28;20057;-77
2023/06/07 04:51:36;;;;;;;7.80;3.70;;;16.70;99.90;;;;;;5025341;28;20046;-76
2023/06/07 04:54:04;;;;;;;4.70;3.85;;;16.80;99.90;;;;;;5022648;28;20042;-76
2023/06/07 04:56:31;;;;;;;4.85;3.60;;;17.00;99.90;;;;;;5024124;28;20081;-76
2023/06/07 04:58:58;;;;;;;5.95;4.22;;;17.10;99.90;;;;;;5008188;28;20046;-76
2023/06/07 05:01:25;;;;;;;5.18;3.38;;;17.20;99.90;;;;;;5012980;28;20583;-77
2023/06/07 05:04:00;;;;;;;8.30;3.72;;;17.40;99.90;;;;;;5015451;28;20050;-76
2023/06/07 05:06:28;;;;;;;6.00;3.88;;;17.50;99.90;;;;;;5017536;28;20052;-76
2023/06/07 05:08:55;;;;;;;5.75;3.70;;;17.70;99.90;;;;;;5016423;28;20117;-77
2023/06/07 05:11:22;;;;;;;10.95;6.13;;;17.80;99.90;;;;;;5015475;28;20046;-75
2023/06/07 05:13:51;;;;;;;7.55;4.18;;;18.00;99.90;;;;;;5021779;28;20041;-77
2023/06/07 05:16:18;;;;;;;6.93;3.75;;;18.10;99.90;;;;;;5013723;28;20069;-77
2023/06/07 05:18:49;;;;;;;5.07;4.15;;;18.20;99.90;;;;;;5020113;28;20042;-76
2023/06/07 05:21:16;;;;;;;6.63;3.67;;;18.40;99.90;;;;;;5026707;28;20058;-77
2023/06/07 05:23:43;;;;;;;5.75;4.05;;;18.50;99.90;;;;;;5022493;28;20501;-75
2023/06/07 05:26:11;;;;;;;8.15;4.22;;;18.60;99.90;;;;;;5011697;28;20044;-77
2023/06/07 05:28:37;;;;;;;5.80;4.03;;;18.70;99.90;;;;;;5010266;28;20052;-77
2023/06/07 05:31:04;;;;;;;8.65;4.72;;;18.70;99.90;;;;;;5014504;28;20125;-77
2023/06/07 05:33:31;;;;;;;7.20;3.70;;;18.80;99.90;;;;;;5015350;28;20068;-77
2023/06/07 05:35:58;;;;;;;6.88;3.88;;;18.90;99.90;;;;;;5011580;28;20050;-77
2023/06/07 05:38:25;;;;;;;6.22;4.13;;;19.00;99.90;;;;;;5016589;28;20054;-76
2023/06/07 05:40:55;;;;;;;9.60;3.67;;;19.00;99.90;;;;;;5017919;28;20046;-77
2023/06/07 05:43:22;;;;;;;10.05;4.60;;;19.00;99.90;;;;;;5025421;28;20057;-76
2023/06/07 05:45:49;;;;;;;8.95;4.35;;;19.00;99.90;;;;;;5019322;28;20054;-77
2023/06/07 05:48:16;;;;;;;6.88;4.53;;;19.00;99.90;;;;;;5019295;28;20159;-76
2023/06/07 05:50:42;;;;;;;7.78;4.93;;;19.00;99.90;;;;;;5022013;28;20144;-77
2023/06/07 05:53:09;;;;;;;12.27;5.20;;;19.00;99.90;;;;;;5020226;28;20468;-77
2023/06/07 05:55:36;;;;;;;9.35;5.00;;;19.00;99.90;;;;;;5015987;28;20054;-76
2023/06/07 05:58:03;;;;;;;9.50;5.57;;;19.00;99.90;;;;;;5004015;28;20089;-77
2023/06/07 06:00:31;;;;;;;9.73;5.80;;;19.00;99.90;;;;;;5012429;28;20045;-76
2023/06/07 06:03:01;;;;;;;9.68;5.72;;;19.00;99.90;;;;;;5015857;28;20053;-76
2023/06/07 06:05:28;;;;;;;6.78;5.68;;;19.00;99.90;;;;;;5014720;28;20143;-76
2023/06/07 06:07:59;;;;;;;10.23;5.95;;;19.00;99.90;;;;;;5011716;28;20533;-76
2023/06/07 06:10:26;;;;;;;8.25;5.60;;;19.00;99.90;;;;;;5020678;28;20054;-76
2023/06/07 06:12:53;;;;;;;9.70;6.10;;;19.00;99.90;;;;;;5022977;28;20042;-76
2023/06/07 06:15:20;;;;;;;7.00;5.30;;;19.00;99.90;;;;;;5024262;28;20045;-76
2023/06/07 06:17:48;;;;;;;17.27;5.43;;;19.00;99.90;;;;;;5022906;28;20096;-76
2023/06/07 06:20:16;;;;;;;7.72;5.40;;;19.00;99.90;;;;;;5027704;28;20107;-76
2023/06/07 06:22:43;;;;;;;9.45;5.35;;;19.00;99.90;;;;;;5029133;28;20058;-77
2023/06/07 06:25:12;;;;;;;8.57;5.93;;;19.00;99.90;;;;;;5016770;28;20453;-75
2023/06/07 06:27:39;;;;;;;9.20;5.45;;;19.00;99.90;;;;;;5016151;28;20058;-76
2023/06/07 06:30:06;;;;;;;8.20;5.53;;;19.00;99.90;;;;;;5016381;28;20065;-76
2023/06/07 06:32:34;;;;;;;7.85;5.90;;;19.00;99.90;;;;;;5018738;28;20042;-76
2023/06/07 06:35:03;;;;;;;8.40;5.97;;;19.00;99.90;;;;;;5020382;28;20041;-76
2023/06/07 06:37:30;;;;;;;9.18;6.18;;;19.10;99.90;;;;;;5020366;28;20050;-77
2023/06/07 06:39:56;;;;;;;7.65;6.07;;;19.10;99.90;;;;;;5019156;28;20038;-76
2023/06/07 06:42:23;;;;;;;12.57;6.10;;;19.10;99.90;;;;;;5024863;28;20498;-76
2023/06/07 06:44:50;;;;;;;7.20;5.90;;;19.10;99.90;;;;;;5023952;28;20057;-76
2023/06/07 06:47:17;;;;;;;10.90;6.30;;;19.20;99.90;;;;;;5023096;28;20045;-76
2023/06/07 06:49:43;;;;;;;11.95;5.88;;;19.20;99.90;;;;;;5026287;28;20096;-76
2023/06/07 06:52:10;;;;;;;13.85;6.80;;;19.20;99.90;;;;;;5028034;28;20129;-76
2023/06/07 06:54:37;;;;;;;9.55;5.65;;;19.20;99.90;;;;;;5004914;28;20050;-76
2023/06/07 06:57:04;;;;;;;13.82;6.10;;;19.20;99.90;;;;;;5015334;28;20046;-76
2023/06/07 06:59:30;;;;;;;10.70;5.82;;;19.20;99.90;;;;;;5015140;28;20468;-76
2023/06/07 07:01:58;;;;;;;10.98;6.53;;;19.30;99.90;;;;;;5014236;28;20042;-75
2023/06/07 07:04:25;;;;;;;10.77;6.05;;;19.30;99.90;;;;;;5020173;28;20120;-76
2023/06/07 07:06:52;;;;;;;10.43;6.25;;;19.30;99.90;;;;;;5020884;28;20480;-77
2023/06/07 07:09:19;;;;;;;11.13;6.32;;;19.30;99.90;;;;;;5019965;28;20049;-76
2023/06/07 07:11:46;;;;;;;12.10;6.95;;;19.30;99.90;;;;;;5023497;28;20103;-76
2023/06/07 07:14:13;;;;;;;10.32;7.05;;;19.30;99.90;;;;;;5026758;28;20050;-76
2023/06/07 07:16:39;;;;;;;13.98;6.25;;;19.30;99.90;;;;;;5019778;28;20041;-76
2023/06/07 07:19:06;;;;;;;12.88;6.05;;;19.30;99.90;;;;;;5024869;28;20120;-76
2023/06/07 07:21:33;;;;;;;12.65;6.25;;;19.30;99.90;;;;;;5016477;28;20078;-76
2023/06/07 07:24:00;;;;;;;11.45;6.75;;;19.40;99.90;;;;;;5013422;28;20588;-76
2023/06/07 07:26:27;;;;;;;8.98;6.22;;;19.30;99.90;;;;;;5013810;28;20056;-76
2023/06/07 07:28:54;;;;;;;11.63;6.93;;;19.40;99.90;;;;;;5014895;28;20103;-75
2023/06/07 07:31:21;;;;;;;11.20;6.90;;;19.40;99.90;;;;;;5016787;28;20058;-76
2023/06/07 07:33:48;;;;;;;9.75;6.38;;;19.30;99.90;;;;;;5019874;28;20484;-76
2023/06/07 07:36:17;;;;;;;11.90;6.95;;;19.30;99.90;;;;;;5020346;28;20073;-76
2023/06/07 07:38:45;;;;;;;10.13;6.93;;;19.40;99.90;;;;;;5019467;28;20045;-75
2023/06/07 07:41:14;;;;;;;11.00;6.70;;;19.30;99.90;;;;;;5023467;28;20041;-76
2023/06/07 07:43:40;;;;;;;11.30;6.80;;;19.40;99.90;;;;;;5026819;28;20417;-76
2023/06/07 07:46:07;;;;;;;8.77;5.80;;;19.40;99.90;;;;;;5021488;28;20137;-76
2023/06/07 07:48:34;;;;;;;9.52;5.53;;;19.40;99.90;;;;;;5024765;28;20054;-76
2023/06/07 07:51:02;;;;;;;13.10;5.43;;;19.50;99.90;;;;;;5018004;28;20046;-76
2023/06/07 07:53:29;;;;;;;8.00;5.05;;;19.50;99.90;;;;;;5024901;28;20045;-76
2023/06/07 07:55:56;;;;;;;12.23;5.35;;;19.60;99.90;;;;;;5015138;28;20467;-76
2023/06/07 07:58:23;;;;;;;9.95;5.57;;;19.60;99.90;;;;;;5015985;28;20049;-77
2023/06/07 08:00:50;;;;;;;7.25;4.80;;;19.70;99.90;;;;;;5016126;28;20050;-77
2023/06/07 08:03:16;;;;;;;8.38;5.57;;;19.70;99.90;;;;;;5016691;28;20057;-76
2023/06/07 08:05:43;;;;;;;7.65;5.80;;;19.70;99.90;;;;;;5021517;28;20060;-76
2023/06/07 08:08:10;;;;;;;9.30;5.28;;;19.80;99.90;;;;;;5018565;28;20536;-76
2023/06/07 08:10:37;;;;;;;9.85;5.05;;;19.80;99.90;;;;;;5018433;28;20056;-76
2023/06/07 08:13:04;;;;;;;10.57;5.65;;;19.90;99.90;;;;;;5024597;28;20073;-76
2023/06/07 08:15:31;;;;;;;10.60;5.03;;;19.90;99.90;;;;;;5025489;28;20107;-75
2023/06/07 08:17:58;;;;;;;9.15;4.97;;;19.90;99.90;;;;;;5023350;28;20078;-76
2023/06/07 08:20:25;;;;;;;7.22;4.70;;;19.90;99.90;;;;;;5013356;28;20142;-76
2023/06/07 08:22:53;;;;;;;10.07;5.13;;;20.00;99.90;;;;;;5011739;28;20045;-75
2023/06/07 08:25:20;;;;;;;14.23;4.93;;;20.10;99.90;;;;;;5011283;28;20050;-77
2023/06/07 08:27:46;;;;;;;10.02;4.50;;;20.10;99.90;;;;;;5014390;28;20058;-76
2023/06/07 08:30:14;;;;;;;10.90;4.63;;;20.20;99.90;;;;;;5016439;28;20094;-76
2023/06/07 08:32:42;;;;;;;6.72;4.30;;;20.20;99.90;;;;;;5018396;28;20041;-76
2023/06/07 08:35:10;;;;;;;14.60;4.25;;;20.30;99.90;;;;;;5021760;28;20050;-77
2023/06/07 08:37:38;;;;;;;6.72;4.20;;;20.30;99.90;;;;;;5020023;28;20053;-76
2023/06/07 08:40:05;;;;;;;7.75;4.63;;;20.40;99.90;;;;;;5019855;28;20096;-76
2023/06/07 08:42:33;;;;;;;14.73;5.05;;;20.40;99.90;;;;;;5023771;28;20623;-76
2023/06/07 08:45:00;;;;;;;9.82;4.57;;;20.40;99.90;;;;;;5040682;28;20042;-78
2023/06/07 08:47:28;;;;;;;8.82;4.38;;;20.50;99.90;;;;;;5023981;28;20107;-77
2023/06/07 08:49:56;;;;;;;9.38;4.20;;;20.50;99.90;;;;;;5011783;28;20233;-77
2023/06/07 08:52:24;;;;;;;6.32;4.38;;;20.60;99.90;;;;;;5011495;28;20049;-77
2023/06/07 08:54:54;;;;;;;7.78;4.20;;;20.60;99.90;;;;;;5012694;28;20041;-77
2023/06/07 08:57:21;;;;;;;9.50;4.60;;;20.60;99.90;;;;;;5017028;28;20421;-77
2023/06/07 08:59:49;;;;;;;6.53;3.67;;;20.60;99.90;;;;;;5011553;28;20513;-75
2023/06/07 09:02:19;;;;;;;6.00;3.90;;;20.70;99.90;;;;;;5016594;28;20050;-77
2023/06/07 09:04:46;;;;;;;8.27;4.20;;;20.70;99.90;;;;;;5018905;28;20279;-78
2023/06/07 09:07:13;;;;;;;9.27;4.47;;;20.80;99.90;;;;;;5024819;28;20077;-76
2023/06/07 09:09:40;;;;;;;7.28;4.82;;;20.90;99.90;;;;;;5019211;28;20498;-77
2023/06/07 09:12:07;;;;;;;9.38;4.32;;;20.90;99.90;;;;;;5027107;28;20045;-76
2023/06/07 09:14:34;;;;;;;6.93;4.40;;;20.90;99.90;;;;;;5022401;28;20541;-78
2023/06/07 09:17:02;;;;;;;7.03;3.60;;;21.00;99.90;;;;;;5019596;28;20041;-77
2023/06/07 09:19:40;;;;;;;7.68;3.90;;;21.00;99.90;;;;;;5014284;28;20501;-76
2023/06/07 09:22:09;;;;;;;13.30;5.75;;;21.10;99.90;;;;;;5008233;28;20124;-77
2023/06/07 09:24:37;;;;;;;6.95;4.50;;;21.10;99.90;;;;;;5014189;28;20061;-77
2023/06/07 09:27:04;;;;;;;8.55;4.88;;;21.20;99.90;;;;;;5013835;28;20076;-76
2023/06/07 09:29:41;;;;;;;8.38;4.35;;;21.20;99.90;;;;;;5010878;28;20180;-76
2023/06/07 09:32:21;;;;;;;5.65;3.92;;;21.20;99.90;;;;;;5020013;28;20042;-77
2023/06/07 09:34:50;;;;;;;12.25;4.45;;;21.30;99.90;;;;;;5019801;28;20461;-77
2023/06/07 09:37:20;;;;;;;8.40;3.70;;;21.30;99.90;;;;;;5025222;28;20050;-76
2023/06/07 09:39:52;;;;;;;10.98;4.38;;;21.40;99.90;;;;;;5017223;28;20037;-76
2023/06/07 09:42:19;;;;;;;6.70;4.35;;;21.40;99.90;;;;;;5018419;28;20053;-76
2023/06/07 09:44:46;;;;;;;7.38;4.00;;;21.50;99.90;;;;;;5021762;28;20205;-77
2023/06/07 09:47:23;;;;;;;10.90;4.00;;;21.50;99.90;;;;;;5010125;28;20960;-77
2023/06/07 09:50:04;;;;;;;5.75;3.70;;;21.60;99.90;;;;;;5002191;28;20041;-77
2023/06/07 09:52:31;;;;;;;6.60;3.35;;;21.60;99.90;;;;;;5003577;28;20061;-77
2023/06/07 09:54:58;;;;;;;9.02;3.85;;;21.60;99.90;;;;;;5009477;28;20112;-77
2023/06/07 09:57:25;;;;;;;5.43;3.10;;;21.70;99.90;;;;;;5009464;28;20050;-76
2023/06/07 10:00:17;;;;;;;9.30;4.25;;;21.70;99.90;;;;;;5011636;28;20060;-77
2023/06/07 10:02:46;;;;;;;6.28;3.65;;;21.70;99.90;;;;;;5014849;28;20045;-77
2023/06/07 10:05:21;;;;;;;5.40;3.03;;;21.80;99.90;;;;;;5017933;28;20049;-77
2023/06/07 10:07:50;;;;;;;9.15;3.35;;;21.90;99.90;;;;;;5012502;28;20127;-77
2023/06/07 10:10:21;;;;;;;5.13;2.92;;;21.90;99.90;;;;;;5016436;28;20057;-77
2023/06/07 10:12:51;;;;;;;6.68;2.92;;;22.00;99.90;;;;;;5020446;28;20498;-77
2023/06/07 10:15:23;;;;;;;7.40;2.97;;;22.00;99.90;;;;;;5017000;28;20042;-76
2023/06/07 10:18:05;;;;;;;11.82;3.50;;;22.10;99.90;;;;;;5020786;28;20045;-77
2023/06/07 10:20:41;;;;;;;9.52;2.97;;;22.10;99.90;;;;;;5008179;28;20050;-77
2023/06/07 10:23:12;;;;;;;7.45;3.22;;;22.10;99.90;;;;;;5015979;28;20049;-76
2023/06/07 10:25:57;;;;;;;8.23;3.10;;;22.20;99.90;;;;;;5015740;28;20163;-77
2023/06/07 10:28:38;;;;;;;3.70;2.70;;;22.20;99.90;;;;;;5016417;28;20081;-76
2023/06/07 10:31:09;;;;;;;5.82;3.15;;;22.30;99.90;;;;;;5016144;28;20057;-77
2023/06/07 10:33:36;;;;;;;4.95;3.25;;;22.30;99.90;;;;;;5013473;28;20050;-77
2023/06/07 10:36:05;;;;;;;6.45;3.15;;;22.30;99.90;;;;;;5017241;28;20413;-77
2023/06/07 10:38:33;;;;;;;6.75;2.90;;;22.40;99.90;;;;;;5012667;28;20041;-76
2023/06/07 10:41:03;;;;;;;8.00;3.47;;;22.40;99.90;;;;;;5014625;28;20128;-75
2023/06/07 10:43:32;;;;;;;6.57;2.88;;;22.40;99.90;;;;;;5021329;28;20054;-75
2023/06/07 10:46:23;;;;;;;8.07;3.50;;;22.40;99.90;;;;;;5012509;28;20065;-76
2023/06/07 10:48:57;;;;;;;6.35;3.75;;;22.40;99.90;;;;;;5002892;28;20498;-75
2023/06/07 10:51:48;;;;;;;4.85;3.17;;;22.50;99.90;;;;;;5001430;28;20262;-75
2023/06/07 10:54:30;;;;;;;6.68;3.03;;;22.50;99.90;;;;;;5009727;28;20513;-75
2023/06/07 10:56:59;;;;;;;5.28;3.28;;;22.60;99.90;;;;;;5013666;28;20132;-77
2023/06/07 10:59:26;;;;;;;4.57;3.17;;;22.60;99.90;;;;;;5007159;28;20053;-75
2023/06/07 11:01:54;;;;;;;4.82;3.22;;;22.70;99.90;;;;;;5012178;28;20101;-75
2023/06/07 11:04:37;;;;;;;7.75;2.28;;;22.70;99.90;;;;;;5018358;28;20054;-76
2023/06/07 11:07:22;;;;;;;6.25;3.17;;;22.80;99.90;;;;;;5015751;28;20075;-77
2023/06/07 11:10:10;;;;;;;3.85;3.17;;;22.80;99.90;;;;;;5015908;28;20045;-76
2023/06/07 11:12:40;;;;;;;6.90;3.40;;;22.80;99.90;;;;;;5010394;28;20085;-77
2023/06/07 11:15:17;;;;;;;8.65;3.10;;;22.80;99.90;;;;;;5012757;28;20046;-77
2023/06/07 11:17:57;;;;;;;6.32;2.92;;;22.90;99.90;;;;;;5003785;28;20051;-77
2023/06/07 11:20:39;;;;;;;6.30;3.30;;;22.90;99.90;;;;;;5005623;28;20050;-75
2023/06/07 11:23:24;;;;;;;3.90;3.22;;;23.00;99.90;;;;;;5002886;28;20061;-76
2023/06/07 11:26:18;;;;;;;5.63;2.90;;;23.00;99.90;;;;;;5015278;28;20049;-77
2023/06/07 11:28:46;;;;;;;7.32;2.60;;;23.00;99.90;;;;;;5019320;28;20076;-77
2023/06/07 11:31:13;;;;;;;5.53;2.58;;;23.10;99.90;;;;;;5019915;28;20528;-76
2023/06/07 11:33:40;;;;;;;5.80;2.90;;;23.20;99.90;;;;;;5022532;28;20049;-76
2023/06/07 11:36:10;;;;;;;8.73;2.83;;;23.20;99.90;;;;;;5026481;28;20523;-76
2023/06/07 11:38:39;;;;;;;5.00;2.70;;;23.20;99.90;;;;;;5016849;28;20050;-75
2023/06/07 11:41:06;;;;;;;4.60;2.85;;;23.30;99.90;;;;;;5023699;28;20128;-76
2023/06/07 11:43:33;;;;;;;7.03;2.70;;;23.30;99.90;;;;;;5011017;28;20083;-76
2023/06/07 11:46:00;;;;;;;3.08;2.50;;;23.40;99.90;;;;;;5014284;28;20054;-77
2023/06/07 11:48:28;;;;;;;8.68;3.47;;;23.50;99.90;;;;;;5012282;28;20422;-76
2023/06/07 11:50:56;;;;;;;4.40;2.97;;;23.50;99.90;;;;;;5016366;28;20049;-76
2023/06/07 11:53:23;;;;;;;3.25;2.75;;;23.60;99.90;;;;;;5016047;28;20501;-76
2023/06/07 11:55:49;;;;;;;9.18;2.60;;;23.60;99.90;;;;;;5020371;28;20107;-76
2023/06/07 11:58:16;;;;;;;5.18;2.70;;;23.60;99.90;;;;;;5016782;28;20045;-77
2023/06/07 12:00:44;;;;;;;5.03;2.60;;;23.60;99.90;;;;;;5020537;28;20417;-75
2023/06/07 12:03:11;;;;;;;4.88;2.95;;;23.70;97.10;;;;;;5023476;28;20038;-75
2023/06/07 12:05:38;;;;;;;5.43;2.80;;;23.70;97.50;;;;;;5025751;28;20077;-75
2023/06/07 12:08:10;;;;;;;6.97;3.35;;;23.70;99.00;;;;;;5021756;28;20050;-75
2023/06/07 12:10:36;;;;;;;7.90;3.17;;;23.70;99.90;;;;;;5020774;28;20050;-76
2023/06/07 12:13:04;;;;;;;7.10;2.70;;;23.80;99.80;;;;;;5012743;28;20076;-77
2023/06/07 12:15:32;;;;;;;4.03;2.72;;;23.80;99.80;;;;;;5013981;28;20805;-75
2023/06/07 12:17:59;;;;;;;4.32;2.42;;;23.80;99.90;;;;;;5015040;28;20166;-75
2023/06/07 12:20:28;;;;;;;6.90;2.80;;;23.90;99.40;;;;;;5017268;28;20045;-74
2023/06/07 12:23:14;;;;;;;4.28;2.92;;;24.00;99.30;;;;;;5015257;28;20140;-75
2023/06/07 12:25:42;;;;;;;7.13;2.90;;;24.00;99.20;;;;;;5019193;28;20053;-75
2023/06/07 12:28:11;;;;;;;7.10;2.72;;;24.10;98.70;;;;;;5021401;28;20072;-75
2023/06/07 12:30:42;;;;;;;5.50;3.05;;;24.10;98.50;;;;;;5029445;28;20075;-75
2023/06/07 12:33:14;;;;;;;5.55;2.63;;;24.10;99.10;;;;;;5021664;28;20054;-75
2023/06/07 12:35:46;;;;;;;5.78;2.90;;;24.10;97.20;;;;;;5027674;28;20056;-75
2023/06/07 12:38:13;;;;;;;5.38;2.65;;;24.10;97.10;;;;;;5023323;28;20046;-76
2023/06/07 12:40:40;;;;;;;6.93;2.83;;;24.20;97.30;;;;;;5017024;28;20140;-75
2023/06/07 12:43:07;;;;;;;6.47;2.63;;;24.30;98.30;;;;;;5017111;28;20080;-75
2023/06/07 12:45:34;;;;;;;7.72;3.00;;;24.40;96.80;;;;;;5017051;28;20468;-75
2023/06/07 12:48:01;;;;;;;5.22;2.90;;;24.40;96.50;;;;;;5020505;28;20583;-75
2023/06/07 12:50:28;;;;;;;5.50;3.10;;;24.40;95.90;;;;;;5019203;28;20108;-75
2023/06/07 12:52:55;;;;;;;3.17;2.38;;;24.40;96.10;;;;;;5021307;28;20065;-75